sensor_id;sensor_type;location;lat;lon;timestamp;P1;P2;P0
70691;PMS5003;58267;51.156;17.044;2023-03-26T00:00:30;12;11;
70691;PMS5003;58267;51.156;17.044;2023-03-26T00:02:56;12;12;
70691;PMS5003;58267;51.156;17.044;2023-03-26T00:05:21;12;12;
70691;PMS5003;58267;51.156;17.044;2023-03-26T00:07:46;12;12;
70691;PMS5003;58267;51.156;17.044;2023-03-26T00:10:11;9;9;
70691;PMS5003;58267;51.156;17.044;2023-03-26T00:12:37;10;9;
70691;PMS5003;58267;51.156;17.044;2023-03-26T00:15:02;10;9;
70691;PMS5003;58267;51.156;17.044;2023-03-26T00:17:27;9;9;
70691;PMS5003;58267;51.156;17.044;2023-03-26T00:19:52;10;10;
70691;PMS5003;58267;51.156;17.044;2023-03-26T00:22:18;10;10;
70691;PMS5003;58267;51.156;17.044;2023-03-26T00:24:43;7;7;
70691;PMS5003;58267;51.156;17.044;2023-03-26T00:27:09;8;8;
70691;PMS5003;58267;51.156;17.044;2023-03-26T00:29:34;9;9;
70691;PMS5003;58267;51.156;17.044;2023-03-26T00:31:59;9;9;
70691;PMS5003;58267;51.156;17.044;2023-03-26T00:34:24;9;9;
70691;PMS5003;58267;51.156;17.044;2023-03-26T00:36:50;7;7;
70691;PMS5003;58267;51.156;17.044;2023-03-26T00:39:15;7;7;
70691;PMS5003;58267;51.156;17.044;2023-03-26T00:41:40;8;7;
70691;PMS5003;58267;51.156;17.044;2023-03-26T00:44:05;6;6;
70691;PMS5003;58267;51.156;17.044;2023-03-26T00:46:31;7;7;
70691;PMS5003;58267;51.156;17.044;2023-03-26T00:48:57;8;8;
70691;PMS5003;58267;51.156;17.044;2023-03-26T00:51:22;7;7;
70691;PMS5003;58267;51.156;17.044;2023-03-26T00:53:48;7;7;
70691;PMS5003;58267;51.156;17.044;2023-03-26T00:56:13;6;6;
70691;PMS5003;58267;51.156;17.044;2023-03-26T00:58:38;7;7;
70691;PMS5003;58267;51.156;17.044;2023-03-26T01:01:04;9;8;
70691;PMS5003;58267;51.156;17.044;2023-03-26T01:03:29;5;5;
70691;PMS5003;58267;51.156;17.044;2023-03-26T01:05:56;8;8;
70691;PMS5003;58267;51.156;17.044;2023-03-26T01:08:23;8;8;
70691;PMS5003;58267;51.156;17.044;2023-03-26T01:10:44;9;9;
70691;PMS5003;58267;51.156;17.044;2023-03-26T01:13:09;10;10;
70691;PMS5003;58267;51.156;17.044;2023-03-26T01:15:34;8;8;
70691;PMS5003;58267;51.156;17.044;2023-03-26T01:18:00;10;9;
70691;PMS5003;58267;51.156;17.044;2023-03-26T01:20:25;12;11;
70691;PMS5003;58267;51.156;17.044;2023-03-26T01:22:51;11;11;
70691;PMS5003;58267;51.156;17.044;2023-03-26T01:25:16;10;10;
70691;PMS5003;58267;51.156;17.044;2023-03-26T01:27:42;11;11;
70691;PMS5003;58267;51.156;17.044;2023-03-26T01:30:09;11;11;
70691;PMS5003;58267;51.156;17.044;2023-03-26T01:32:36;10;9;
70691;PMS5003;58267;51.156;17.044;2023-03-26T01:35:01;9;9;
70691;PMS5003;58267;51.156;17.044;2023-03-26T01:37:23;9;9;
70691;PMS5003;58267;51.156;17.044;2023-03-26T01:39:49;11;10;
70691;PMS5003;58267;51.156;17.044;2023-03-26T01:42:13;10;10;
70691;PMS5003;58267;51.156;17.044;2023-03-26T01:44:39;11;11;
70691;PMS5003;58267;51.156;17.044;2023-03-26T01:47:03;9;9;
70691;PMS5003;58267;51.156;17.044;2023-03-26T01:49:29;9;9;
70691;PMS5003;58267;51.156;17.044;2023-03-26T01:51:55;12;11;
70691;PMS5003;58267;51.156;17.044;2023-03-26T01:54:20;9;9;
70691;PMS5003;58267;51.156;17.044;2023-03-26T01:56:48;10;10;
70691;PMS5003;58267;51.156;17.044;2023-03-26T01:59:14;9;9;
70691;PMS5003;58267;51.156;17.044;2023-03-26T02:01:36;11;11;
70691;PMS5003;58267;51.156;17.044;2023-03-26T02:04:02;9;9;
70691;PMS5003;58267;51.156;17.044;2023-03-26T02:06:26;11;10;
70691;PMS5003;58267;51.156;17.044;2023-03-26T02:08:51;8;8;
70691;PMS5003;58267;51.156;17.044;2023-03-26T02:11:16;9;9;
70691;PMS5003;58267;51.156;17.044;2023-03-26T02:13:43;12;11;
70691;PMS5003;58267;51.156;17.044;2023-03-26T02:16:08;9;9;
70691;PMS5003;58267;51.156;17.044;2023-03-26T02:18:32;10;10;
70691;PMS5003;58267;51.156;17.044;2023-03-26T02:20:57;10;10;
70691;PMS5003;58267;51.156;17.044;2023-03-26T02:23:22;9;8;
70691;PMS5003;58267;51.156;17.044;2023-03-26T02:25:47;11;10;
70691;PMS5003;58267;51.156;17.044;2023-03-26T02:28:13;9;9;
70691;PMS5003;58267;51.156;17.044;2023-03-26T02:30:38;10;10;
70691;PMS5003;58267;51.156;17.044;2023-03-26T02:33:04;11;11;
70691;PMS5003;58267;51.156;17.044;2023-03-26T02:35:29;10;10;
70691;PMS5003;58267;51.156;17.044;2023-03-26T02:37:54;9;9;
70691;PMS5003;58267;51.156;17.044;2023-03-26T02:40:19;12;11;
70691;PMS5003;58267;51.156;17.044;2023-03-26T02:42:44;11;10;
70691;PMS5003;58267;51.156;17.044;2023-03-26T02:45:10;11;10;
70691;PMS5003;58267;51.156;17.044;2023-03-26T02:47:35;11;11;
70691;PMS5003;58267;51.156;17.044;2023-03-26T02:50:01;11;10;
70691;PMS5003;58267;51.156;17.044;2023-03-26T02:52:26;11;10;
70691;PMS5003;58267;51.156;17.044;2023-03-26T02:54:51;8;8;
70691;PMS5003;58267;51.156;17.044;2023-03-26T02:57:16;10;9;
70691;PMS5003;58267;51.156;17.044;2023-03-26T02:59:42;10;10;
70691;PMS5003;58267;51.156;17.044;2023-03-26T03:02:07;10;9;
70691;PMS5003;58267;51.156;17.044;2023-03-26T03:04:32;11;10;
70691;PMS5003;58267;51.156;17.044;2023-03-26T03:06:57;9;8;
70691;PMS5003;58267;51.156;17.044;2023-03-26T03:09:23;8;8;
70691;PMS5003;58267;51.156;17.044;2023-03-26T03:11:48;8;8;
70691;PMS5003;58267;51.156;17.044;2023-03-26T03:14:13;8;8;
70691;PMS5003;58267;51.156;17.044;2023-03-26T03:16:38;8;8;
70691;PMS5003;58267;51.156;17.044;2023-03-26T03:19:03;6;5;
70691;PMS5003;58267;51.156;17.044;2023-03-26T03:21:28;9;9;
70691;PMS5003;58267;51.156;17.044;2023-03-26T03:23:54;6;6;
70691;PMS5003;58267;51.156;17.044;2023-03-26T03:26:20;7;6;
70691;PMS5003;58267;51.156;17.044;2023-03-26T03:28:44;8;7;
70691;PMS5003;58267;51.156;17.044;2023-03-26T03:31:10;17;15;
70691;PMS5003;58267;51.156;17.044;2023-03-26T03:33:35;8;8;
70691;PMS5003;58267;51.156;17.044;2023-03-26T03:36:00;10;10;
70691;PMS5003;58267;51.156;17.044;2023-03-26T03:38:26;11;11;
70691;PMS5003;58267;51.156;17.044;2023-03-26T03:40:51;11;11;
70691;PMS5003;58267;51.156;17.044;2023-03-26T03:43:16;6;6;
70691;PMS5003;58267;51.156;17.044;2023-03-26T03:45:41;6;5;
70691;PMS5003;58267;51.156;17.044;2023-03-26T03:48:06;7;6;
70691;PMS5003;58267;51.156;17.044;2023-03-26T03:50:32;7;6;
70691;PMS5003;58267;51.156;17.044;2023-03-26T03:52:57;7;7;
70691;PMS5003;58267;51.156;17.044;2023-03-26T03:55:22;7;7;
70691;PMS5003;58267;51.156;17.044;2023-03-26T03:57:47;7;7;
70691;PMS5003;58267;51.156;17.044;2023-03-26T04:00:13;7;6;
70691;PMS5003;58267;51.156;17.044;2023-03-26T04:02:38;7;6;
70691;PMS5003;58267;51.156;17.044;2023-03-26T04:05:03;9;9;
70691;PMS5003;58267;51.156;17.044;2023-03-26T04:07:28;8;7;
70691;PMS5003;58267;51.156;17.044;2023-03-26T04:09:53;8;7;
70691;PMS5003;58267;51.156;17.044;2023-03-26T04:12:19;5;5;
70691;PMS5003;58267;51.156;17.044;2023-03-26T04:14:44;6;6;
70691;PMS5003;58267;51.156;17.044;2023-03-26T04:17:09;8;6;
70691;PMS5003;58267;51.156;17.044;2023-03-26T04:19:34;7;6;
70691;PMS5003;58267;51.156;17.044;2023-03-26T04:22:00;4;4;
70691;PMS5003;58267;51.156;17.044;2023-03-26T04:24:25;4;4;
70691;PMS5003;58267;51.156;17.044;2023-03-26T04:26:50;3;2;
70691;PMS5003;58267;51.156;17.044;2023-03-26T04:29:16;4;4;
70691;PMS5003;58267;51.156;17.044;2023-03-26T04:31:41;3;3;
70691;PMS5003;58267;51.156;17.044;2023-03-26T04:34:07;3;3;
70691;PMS5003;58267;51.156;17.044;2023-03-26T04:36:31;4;3;
70691;PMS5003;58267;51.156;17.044;2023-03-26T04:38:57;2;2;
70691;PMS5003;58267;51.156;17.044;2023-03-26T04:41:23;2;2;
70691;PMS5003;58267;51.156;17.044;2023-03-26T04:43:48;2;2;
70691;PMS5003;58267;51.156;17.044;2023-03-26T04:46:13;4;4;
70691;PMS5003;58267;51.156;17.044;2023-03-26T04:48:38;3;3;
70691;PMS5003;58267;51.156;17.044;2023-03-26T04:51:04;3;3;
70691;PMS5003;58267;51.156;17.044;2023-03-26T04:53:29;4;3;
70691;PMS5003;58267;51.156;17.044;2023-03-26T04:55:56;3;3;
70691;PMS5003;58267;51.156;17.044;2023-03-26T04:58:20;3;3;
70691;PMS5003;58267;51.156;17.044;2023-03-26T05:00:45;3;3;
70691;PMS5003;58267;51.156;17.044;2023-03-26T05:03:10;4;3;
70691;PMS5003;58267;51.156;17.044;2023-03-26T05:05:35;2;2;
70691;PMS5003;58267;51.156;17.044;2023-03-26T05:08:01;4;3;
70691;PMS5003;58267;51.156;17.044;2023-03-26T05:10:26;2;2;
70691;PMS5003;58267;51.156;17.044;2023-03-26T05:12:51;3;2;
70691;PMS5003;58267;51.156;17.044;2023-03-26T05:15:16;1;1;
70691;PMS5003;58267;51.156;17.044;2023-03-26T05:17:41;3;3;
70691;PMS5003;58267;51.156;17.044;2023-03-26T05:20:09;2;2;
70691;PMS5003;58267;51.156;17.044;2023-03-26T05:22:32;4;4;
70691;PMS5003;58267;51.156;17.044;2023-03-26T05:24:57;2;2;
70691;PMS5003;58267;51.156;17.044;2023-03-26T05:27:22;2;1;
70691;PMS5003;58267;51.156;17.044;2023-03-26T05:29:47;3;3;
70691;PMS5003;58267;51.156;17.044;2023-03-26T05:32:12;3;2;
70691;PMS5003;58267;51.156;17.044;2023-03-26T05:34:38;3;3;
70691;PMS5003;58267;51.156;17.044;2023-03-26T05:37:03;1;1;
70691;PMS5003;58267;51.156;17.044;2023-03-26T05:39:28;3;3;
70691;PMS5003;58267;51.156;17.044;2023-03-26T05:41:53;2;2;
70691;PMS5003;58267;51.156;17.044;2023-03-26T05:44:18;2;2;
70691;PMS5003;58267;51.156;17.044;2023-03-26T05:46:44;2;2;
70691;PMS5003;58267;51.156;17.044;2023-03-26T05:49:09;2;2;
70691;PMS5003;58267;51.156;17.044;2023-03-26T05:51:34;2;2;
70691;PMS5003;58267;51.156;17.044;2023-03-26T05:54:00;2;1;
70691;PMS5003;58267;51.156;17.044;2023-03-26T05:56:25;3;3;
70691;PMS5003;58267;51.156;17.044;2023-03-26T05:58:50;3;3;
70691;PMS5003;58267;51.156;17.044;2023-03-26T06:01:15;2;2;
70691;PMS5003;58267;51.156;17.044;2023-03-26T06:03:41;3;3;
70691;PMS5003;58267;51.156;17.044;2023-03-26T06:06:06;3;3;
70691;PMS5003;58267;51.156;17.044;2023-03-26T06:08:31;2;1;
70691;PMS5003;58267;51.156;17.044;2023-03-26T06:10:57;4;4;
70691;PMS5003;58267;51.156;17.044;2023-03-26T06:13:21;3;3;
70691;PMS5003;58267;51.156;17.044;2023-03-26T06:15:46;4;3;
70691;PMS5003;58267;51.156;17.044;2023-03-26T06:18:12;3;3;
70691;PMS5003;58267;51.156;17.044;2023-03-26T06:20:37;3;3;
70691;PMS5003;58267;51.156;17.044;2023-03-26T06:23:02;2;2;
70691;PMS5003;58267;51.156;17.044;2023-03-26T06:25:27;3;3;
70691;PMS5003;58267;51.156;17.044;2023-03-26T06:27:52;5;5;
70691;PMS5003;58267;51.156;17.044;2023-03-26T06:30:18;5;4;
70691;PMS5003;58267;51.156;17.044;2023-03-26T06:32:43;6;6;
70691;PMS5003;58267;51.156;17.044;2023-03-26T06:35:08;5;4;
70691;PMS5003;58267;51.156;17.044;2023-03-26T06:37:33;4;4;
70691;PMS5003;58267;51.156;17.044;2023-03-26T06:39:58;3;3;
70691;PMS5003;58267;51.156;17.044;2023-03-26T06:42:24;5;5;
70691;PMS5003;58267;51.156;17.044;2023-03-26T06:44:49;4;4;
70691;PMS5003;58267;51.156;17.044;2023-03-26T06:47:15;4;4;
70691;PMS5003;58267;51.156;17.044;2023-03-26T06:49:40;5;4;
70691;PMS5003;58267;51.156;17.044;2023-03-26T06:52:05;3;3;
70691;PMS5003;58267;51.156;17.044;2023-03-26T06:54:30;4;4;
70691;PMS5003;58267;51.156;17.044;2023-03-26T06:56:56;4;3;
70691;PMS5003;58267;51.156;17.044;2023-03-26T06:59:22;4;4;
70691;PMS5003;58267;51.156;17.044;2023-03-26T07:01:47;5;4;
70691;PMS5003;58267;51.156;17.044;2023-03-26T07:04:12;5;4;
70691;PMS5003;58267;51.156;17.044;2023-03-26T07:06:37;4;4;
70691;PMS5003;58267;51.156;17.044;2023-03-26T07:09:02;5;5;
70691;PMS5003;58267;51.156;17.044;2023-03-26T07:11:27;5;5;
70691;PMS5003;58267;51.156;17.044;2023-03-26T07:13:53;3;3;
70691;PMS5003;58267;51.156;17.044;2023-03-26T07:16:18;3;3;
70691;PMS5003;58267;51.156;17.044;2023-03-26T07:18:43;4;4;
70691;PMS5003;58267;51.156;17.044;2023-03-26T07:21:09;6;5;
70691;PMS5003;58267;51.156;17.044;2023-03-26T07:23:34;4;4;
70691;PMS5003;58267;51.156;17.044;2023-03-26T07:25:59;4;4;
70691;PMS5003;58267;51.156;17.044;2023-03-26T07:28:26;5;5;
70691;PMS5003;58267;51.156;17.044;2023-03-26T07:30:52;4;4;
70691;PMS5003;58267;51.156;17.044;2023-03-26T07:33:14;2;2;
70691;PMS5003;58267;51.156;17.044;2023-03-26T07:35:40;5;3;
70691;PMS5003;58267;51.156;17.044;2023-03-26T07:42:58;2;2;
70691;PMS5003;58267;51.156;17.044;2023-03-26T07:45:21;3;3;
70691;PMS5003;58267;51.156;17.044;2023-03-26T07:47:46;2;2;
70691;PMS5003;58267;51.156;17.044;2023-03-26T07:50:13;2;2;
70691;PMS5003;58267;51.156;17.044;2023-03-26T07:52:36;4;4;
70691;PMS5003;58267;51.156;17.044;2023-03-26T07:55:01;3;3;
70691;PMS5003;58267;51.156;17.044;2023-03-26T07:57:30;4;4;
70691;PMS5003;58267;51.156;17.044;2023-03-26T07:59:53;3;3;
70691;PMS5003;58267;51.156;17.044;2023-03-26T08:02:23;4;4;
70691;PMS5003;58267;51.156;17.044;2023-03-26T08:04:46;5;4;
70691;PMS5003;58267;51.156;17.044;2023-03-26T08:07:09;2;2;
70691;PMS5003;58267;51.156;17.044;2023-03-26T08:09:33;4;4;
70691;PMS5003;58267;51.156;17.044;2023-03-26T08:12:00;3;3;
70691;PMS5003;58267;51.156;17.044;2023-03-26T08:14:26;4;4;
70691;PMS5003;58267;51.156;17.044;2023-03-26T08:16:49;5;5;
70691;PMS5003;58267;51.156;17.044;2023-03-26T08:19:18;4;4;
70691;PMS5003;58267;51.156;17.044;2023-03-26T08:21:39;4;4;
70691;PMS5003;58267;51.156;17.044;2023-03-26T08:24:05;4;4;
70691;PMS5003;58267;51.156;17.044;2023-03-26T08:26:30;3;3;
70691;PMS5003;58267;51.156;17.044;2023-03-26T08:28:57;5;5;
70691;PMS5003;58267;51.156;17.044;2023-03-26T08:31:21;5;4;
70691;PMS5003;58267;51.156;17.044;2023-03-26T08:33:44;6;6;
70691;PMS5003;58267;51.156;17.044;2023-03-26T08:36:09;4;4;
70691;PMS5003;58267;51.156;17.044;2023-03-26T08:38:35;5;4;
70691;PMS5003;58267;51.156;17.044;2023-03-26T08:45:55;3;3;
70691;PMS5003;58267;51.156;17.044;2023-03-26T08:48:24;4;4;
70691;PMS5003;58267;51.156;17.044;2023-03-26T08:50:45;3;3;
70691;PMS5003;58267;51.156;17.044;2023-03-26T08:55:33;3;3;
70691;PMS5003;58267;51.156;17.044;2023-03-26T09:10:07;3;2;
70691;PMS5003;58267;51.156;17.044;2023-03-26T09:27:03;3;3;
70691;PMS5003;58267;51.156;17.044;2023-03-26T09:34:20;3;3;
70691;PMS5003;58267;51.156;17.044;2023-03-26T09:36:44;2;2;
70691;PMS5003;58267;51.156;17.044;2023-03-26T09:39:08;1;1;
70691;PMS5003;58267;51.156;17.044;2023-03-26T09:41:34;3;3;
70691;PMS5003;58267;51.156;17.044;2023-03-26T09:46:24;2;2;
70691;PMS5003;58267;51.156;17.044;2023-03-26T09:51:17;4;4;
70691;PMS5003;58267;51.156;17.044;2023-03-26T09:53:40;4;4;
70691;PMS5003;58267;51.156;17.044;2023-03-26T09:56:04;5;5;
70691;PMS5003;58267;51.156;17.044;2023-03-26T09:58:31;2;2;
70691;PMS5003;58267;51.156;17.044;2023-03-26T10:00:52;6;6;
70691;PMS5003;58267;51.156;17.044;2023-03-26T10:03:19;6;5;
70691;PMS5003;58267;51.156;17.044;2023-03-26T10:05:45;5;4;
70691;PMS5003;58267;51.156;17.044;2023-03-26T10:08:11;3;3;
70691;PMS5003;58267;51.156;17.044;2023-03-26T10:10:35;5;5;
70691;PMS5003;58267;51.156;17.044;2023-03-26T10:12:58;3;3;
70691;PMS5003;58267;51.156;17.044;2023-03-26T10:15:27;6;5;
70691;PMS5003;58267;51.156;17.044;2023-03-26T10:17:53;5;5;
70691;PMS5003;58267;51.156;17.044;2023-03-26T10:20:23;4;4;
70691;PMS5003;58267;51.156;17.044;2023-03-26T10:22:42;5;5;
70691;PMS5003;58267;51.156;17.044;2023-03-26T10:27:33;5;5;
70691;PMS5003;58267;51.156;17.044;2023-03-26T10:29:59;9;9;
70691;PMS5003;58267;51.156;17.044;2023-03-26T10:32:21;8;7;
70691;PMS5003;58267;51.156;17.044;2023-03-26T10:34:48;8;7;
70691;PMS5003;58267;51.156;17.044;2023-03-26T10:37:12;10;10;
70691;PMS5003;58267;51.156;17.044;2023-03-26T10:39:42;7;6;
70691;PMS5003;58267;51.156;17.044;2023-03-26T10:42:05;6;6;
70691;PMS5003;58267;51.156;17.044;2023-03-26T10:44:30;7;6;
70691;PMS5003;58267;51.156;17.044;2023-03-26T10:46:56;6;6;
70691;PMS5003;58267;51.156;17.044;2023-03-26T10:49:21;5;5;
70691;PMS5003;58267;51.156;17.044;2023-03-26T10:51:44;7;7;
70691;PMS5003;58267;51.156;17.044;2023-03-26T10:54:10;9;8;
70691;PMS5003;58267;51.156;17.044;2023-03-26T10:56:33;6;6;
70691;PMS5003;58267;51.156;17.044;2023-03-26T10:58:58;9;9;
70691;PMS5003;58267;51.156;17.044;2023-03-26T11:01:27;6;6;
70691;PMS5003;58267;51.156;17.044;2023-03-26T11:03:49;8;7;
70691;PMS5003;58267;51.156;17.044;2023-03-26T11:06:17;7;7;
70691;PMS5003;58267;51.156;17.044;2023-03-26T11:08:39;8;8;
70691;PMS5003;58267;51.156;17.044;2023-03-26T11:11:05;8;8;
70691;PMS5003;58267;51.156;17.044;2023-03-26T11:13:33;6;6;
70691;PMS5003;58267;51.156;17.044;2023-03-26T11:15:54;8;7;
70691;PMS5003;58267;51.156;17.044;2023-03-26T11:18:20;7;7;
70691;PMS5003;58267;51.156;17.044;2023-03-26T11:20:45;5;5;
70691;PMS5003;58267;51.156;17.044;2023-03-26T11:23:16;8;7;
70691;PMS5003;58267;51.156;17.044;2023-03-26T11:25:39;8;8;
70691;PMS5003;58267;51.156;17.044;2023-03-26T11:28:04;9;8;
70691;PMS5003;58267;51.156;17.044;2023-03-26T11:30:27;9;9;
70691;PMS5003;58267;51.156;17.044;2023-03-26T11:32:52;5;5;
70691;PMS5003;58267;51.156;17.044;2023-03-26T11:35:17;10;10;
70691;PMS5003;58267;51.156;17.044;2023-03-26T11:37:42;11;9;
70691;PMS5003;58267;51.156;17.044;2023-03-26T11:40:08;11;11;
70691;PMS5003;58267;51.156;17.044;2023-03-26T11:42:33;11;10;
70691;PMS5003;58267;51.156;17.044;2023-03-26T11:44:59;10;9;
70691;PMS5003;58267;51.156;17.044;2023-03-26T11:47:24;9;8;
70691;PMS5003;58267;51.156;17.044;2023-03-26T11:49:49;9;9;
70691;PMS5003;58267;51.156;17.044;2023-03-26T11:52:14;8;8;
70691;PMS5003;58267;51.156;17.044;2023-03-26T11:54:39;8;7;
70691;PMS5003;58267;51.156;17.044;2023-03-26T11:57:05;6;6;
70691;PMS5003;58267;51.156;17.044;2023-03-26T11:59:30;9;8;
70691;PMS5003;58267;51.156;17.044;2023-03-26T12:01:55;6;6;
70691;PMS5003;58267;51.156;17.044;2023-03-26T12:04:24;6;6;
70691;PMS5003;58267;51.156;17.044;2023-03-26T12:06:51;9;7;
70691;PMS5003;58267;51.156;17.044;2023-03-26T12:09:15;5;5;
70691;PMS5003;58267;51.156;17.044;2023-03-26T12:11:36;8;7;
70691;PMS5003;58267;51.156;17.044;2023-03-26T12:14:03;8;7;
70691;PMS5003;58267;51.156;17.044;2023-03-26T12:16:27;5;5;
70691;PMS5003;58267;51.156;17.044;2023-03-26T12:21:18;7;6;
70691;PMS5003;58267;51.156;17.044;2023-03-26T12:23:45;7;7;
70691;PMS5003;58267;51.156;17.044;2023-03-26T12:26:13;8;8;
70691;PMS5003;58267;51.156;17.044;2023-03-26T12:28:33;5;5;
70691;PMS5003;58267;51.156;17.044;2023-03-26T12:31:00;4;4;
70691;PMS5003;58267;51.156;17.044;2023-03-26T12:33:24;6;6;
70691;PMS5003;58267;51.156;17.044;2023-03-26T12:35:48;5;5;
70691;PMS5003;58267;51.156;17.044;2023-03-26T12:38:15;4;4;
70691;PMS5003;58267;51.156;17.044;2023-03-26T12:40:39;3;3;
70691;PMS5003;58267;51.156;17.044;2023-03-26T12:43:05;4;3;
70691;PMS5003;58267;51.156;17.044;2023-03-26T12:45:30;5;4;
70691;PMS5003;58267;51.156;17.044;2023-03-26T12:47:54;6;6;
70691;PMS5003;58267;51.156;17.044;2023-03-26T12:50:20;4;4;
70691;PMS5003;58267;51.156;17.044;2023-03-26T12:52:49;5;4;
70691;PMS5003;58267;51.156;17.044;2023-03-26T12:55:13;5;5;
70691;PMS5003;58267;51.156;17.044;2023-03-26T12:57:36;5;5;
70691;PMS5003;58267;51.156;17.044;2023-03-26T13:00:05;4;4;
70691;PMS5003;58267;51.156;17.044;2023-03-26T13:02:31;4;4;
70691;PMS5003;58267;51.156;17.044;2023-03-26T13:04:54;4;4;
70691;PMS5003;58267;51.156;17.044;2023-03-26T13:07:19;5;4;
70691;PMS5003;58267;51.156;17.044;2023-03-26T13:09:46;4;4;
70691;PMS5003;58267;51.156;17.044;2023-03-26T13:12:08;5;4;
70691;PMS5003;58267;51.156;17.044;2023-03-26T13:14:34;5;4;
70691;PMS5003;58267;51.156;17.044;2023-03-26T13:16:58;4;4;
70691;PMS5003;58267;51.156;17.044;2023-03-26T13:19:24;2;2;
70691;PMS5003;58267;51.156;17.044;2023-03-26T13:21:51;5;5;
70691;PMS5003;58267;51.156;17.044;2023-03-26T13:24:16;5;4;
70691;PMS5003;58267;51.156;17.044;2023-03-26T13:26:42;5;5;
70691;PMS5003;58267;51.156;17.044;2023-03-26T13:29:04;4;4;
70691;PMS5003;58267;51.156;17.044;2023-03-26T13:31:29;6;5;
70691;PMS5003;58267;51.156;17.044;2023-03-26T13:33:56;5;5;
70691;PMS5003;58267;51.156;17.044;2023-03-26T13:36:19;4;4;
70691;PMS5003;58267;51.156;17.044;2023-03-26T13:38:46;6;5;
70691;PMS5003;58267;51.156;17.044;2023-03-26T13:41:11;5;4;
70691;PMS5003;58267;51.156;17.044;2023-03-26T13:43:40;5;5;
70691;PMS5003;58267;51.156;17.044;2023-03-26T13:46:01;4;4;
70691;PMS5003;58267;51.156;17.044;2023-03-26T13:48:25;5;4;
70691;PMS5003;58267;51.156;17.044;2023-03-26T13:50:53;6;5;
70691;PMS5003;58267;51.156;17.044;2023-03-26T13:53:16;5;5;
70691;PMS5003;58267;51.156;17.044;2023-03-26T13:55:40;2;2;
70691;PMS5003;58267;51.156;17.044;2023-03-26T13:58:11;4;4;
70691;PMS5003;58267;51.156;17.044;2023-03-26T14:00:36;5;5;
70691;PMS5003;58267;51.156;17.044;2023-03-26T14:02:56;6;6;
70691;PMS5003;58267;51.156;17.044;2023-03-26T14:05:22;5;5;
70691;PMS5003;58267;51.156;17.044;2023-03-26T14:07:47;5;5;
70691;PMS5003;58267;51.156;17.044;2023-03-26T14:10:12;6;5;
70691;PMS5003;58267;51.156;17.044;2023-03-26T14:12:39;6;6;
70691;PMS5003;58267;51.156;17.044;2023-03-26T14:15:02;6;6;
70691;PMS5003;58267;51.156;17.044;2023-03-26T14:17:28;4;4;
70691;PMS5003;58267;51.156;17.044;2023-03-26T14:20:01;3;3;
70691;PMS5003;58267;51.156;17.044;2023-03-26T14:22:18;6;5;
70691;PMS5003;58267;51.156;17.044;2023-03-26T14:24:47;5;5;
70691;PMS5003;58267;51.156;17.044;2023-03-26T14:27:12;6;5;
70691;PMS5003;58267;51.156;17.044;2023-03-26T14:29:37;6;6;
70691;PMS5003;58267;51.156;17.044;2023-03-26T14:32:02;5;5;
70691;PMS5003;58267;51.156;17.044;2023-03-26T14:34:27;5;5;
70691;PMS5003;58267;51.156;17.044;2023-03-26T14:36:52;6;6;
70691;PMS5003;58267;51.156;17.044;2023-03-26T14:39:16;5;5;
70691;PMS5003;58267;51.156;17.044;2023-03-26T14:41:40;5;5;
70691;PMS5003;58267;51.156;17.044;2023-03-26T14:46:33;5;5;
70691;PMS5003;58267;51.156;17.044;2023-03-26T14:48:58;7;7;
70691;PMS5003;58267;51.156;17.044;2023-03-26T14:51:23;6;6;
70691;PMS5003;58267;51.156;17.044;2023-03-26T14:53:45;7;7;
70691;PMS5003;58267;51.156;17.044;2023-03-26T15:03:32;4;4;
70691;PMS5003;58267;51.156;17.044;2023-03-26T15:22:52;19;18;
70691;PMS5003;58267;51.156;17.044;2023-03-26T15:30:11;12;12;
70691;PMS5003;58267;51.156;17.044;2023-03-26T15:39:48;5;5;
70691;PMS5003;58267;51.156;17.044;2023-03-26T15:42:14;6;6;
70691;PMS5003;58267;51.156;17.044;2023-03-26T15:44:41;7;7;
70691;PMS5003;58267;51.156;17.044;2023-03-26T15:49:28;6;6;
70691;PMS5003;58267;51.156;17.044;2023-03-26T15:51:52;8;8;
70691;PMS5003;58267;51.156;17.044;2023-03-26T15:54:19;7;7;
70691;PMS5003;58267;51.156;17.044;2023-03-26T15:56:45;6;6;
70691;PMS5003;58267;51.156;17.044;2023-03-26T15:59:07;4;4;
70691;PMS5003;58267;51.156;17.044;2023-03-26T16:01:36;4;4;
70691;PMS5003;58267;51.156;17.044;2023-03-26T16:03:58;4;4;
70691;PMS5003;58267;51.156;17.044;2023-03-26T16:06:25;21;21;
70691;PMS5003;58267;51.156;17.044;2023-03-26T16:08:49;3;3;
70691;PMS5003;58267;51.156;17.044;2023-03-26T16:11:12;3;3;
70691;PMS5003;58267;51.156;17.044;2023-03-26T16:13:38;6;6;
70691;PMS5003;58267;51.156;17.044;2023-03-26T16:18:30;5;5;
70691;PMS5003;58267;51.156;17.044;2023-03-26T16:20:53;8;7;
70691;PMS5003;58267;51.156;17.044;2023-03-26T16:23:20;6;6;
70691;PMS5003;58267;51.156;17.044;2023-03-26T16:30:34;7;7;
70691;PMS5003;58267;51.156;17.044;2023-03-26T16:37:49;9;6;
70691;PMS5003;58267;51.156;17.044;2023-03-26T16:42:40;7;7;
70691;PMS5003;58267;51.156;17.044;2023-03-26T16:45:09;7;7;
70691;PMS5003;58267;51.156;17.044;2023-03-26T16:47:31;7;7;
70691;PMS5003;58267;51.156;17.044;2023-03-26T16:50:00;6;6;
70691;PMS5003;58267;51.156;17.044;2023-03-26T16:52:22;7;7;
70691;PMS5003;58267;51.156;17.044;2023-03-26T16:54:46;7;7;
70691;PMS5003;58267;51.156;17.044;2023-03-26T16:57:17;15;13;
70691;PMS5003;58267;51.156;17.044;2023-03-26T16:59:38;13;12;
70691;PMS5003;58267;51.156;17.044;2023-03-26T17:02:04;11;11;
70691;PMS5003;58267;51.156;17.044;2023-03-26T17:04:28;10;10;
70691;PMS5003;58267;51.156;17.044;2023-03-26T17:06:56;9;8;
70691;PMS5003;58267;51.156;17.044;2023-03-26T17:09:21;10;9;
70691;PMS5003;58267;51.156;17.044;2023-03-26T17:11:46;6;6;
70691;PMS5003;58267;51.156;17.044;2023-03-26T17:14:13;10;10;
70691;PMS5003;58267;51.156;17.044;2023-03-26T17:16:34;10;9;
70691;PMS5003;58267;51.156;17.044;2023-03-26T17:19:00;10;10;
70691;PMS5003;58267;51.156;17.044;2023-03-26T17:21:24;16;15;
70691;PMS5003;58267;51.156;17.044;2023-03-26T17:23:54;14;13;
70691;PMS5003;58267;51.156;17.044;2023-03-26T17:26:16;14;14;
70691;PMS5003;58267;51.156;17.044;2023-03-26T17:28:43;15;15;
70691;PMS5003;58267;51.156;17.044;2023-03-26T17:31:10;15;14;
70691;PMS5003;58267;51.156;17.044;2023-03-26T17:33:31;17;17;
70691;PMS5003;58267;51.156;17.044;2023-03-26T17:40:49;24;23;
70691;PMS5003;58267;51.156;17.044;2023-03-26T17:45:39;18;17;
70691;PMS5003;58267;51.156;17.044;2023-03-26T17:48:07;10;9;
70691;PMS5003;58267;51.156;17.044;2023-03-26T17:50:31;11;11;
70691;PMS5003;58267;51.156;17.044;2023-03-26T17:52:55;15;14;
70691;PMS5003;58267;51.156;17.044;2023-03-26T17:55:21;10;10;
70691;PMS5003;58267;51.156;17.044;2023-03-26T17:57:46;9;8;
70691;PMS5003;58267;51.156;17.044;2023-03-26T18:00:13;13;12;
70691;PMS5003;58267;51.156;17.044;2023-03-26T18:02:36;18;16;
70691;PMS5003;58267;51.156;17.044;2023-03-26T18:05:02;20;18;
70691;PMS5003;58267;51.156;17.044;2023-03-26T18:09:57;19;18;
70691;PMS5003;58267;51.156;17.044;2023-03-26T18:12:23;16;16;